Time;durP1;ratioP1;P1;durP2;ratioP2;P2;SDS_P1;SDS_P2;PMS_P1;PMS_P2;Temp;Humidity;BMP_temperature;BMP_pressure;BME280_temperature;BME280_humidity;BME280_pressure;Samples;Min_cycle;Max_cycle;Signal;HPM_P1;HPM_P2
2021/12/28 00:00:44;;;;;;;299.05;136.20;;;2.80;99.90;;;;;;5138637;27;20047;-78
2021/12/28 00:03:12;;;;;;;260.88;121.57;;;2.80;99.90;;;;;;5119839;27;20035;-78
2021/12/28 00:05:39;;;;;;;249.30;117.13;;;2.80;1.00;;;;;;5119555;27;20081;-80
2021/12/28 00:08:07;;;;;;;245.13;114.97;;;2.80;1.00;;;;;;5138215;27;20043;-79
2021/12/28 00:10:34;;;;;;;203.40;95.78;;;2.90;1.00;;;;;;5119709;28;20066;-80
2021/12/28 00:13:02;;;;;;;202.45;94.25;;;2.90;1.00;;;;;;5139293;27;20051;-80
2021/12/28 00:15:35;;;;;;;233.63;106.10;;;3.00;1.00;;;;;;5121373;27;20057;-80
2021/12/28 00:18:04;;;;;;;234.45;114.00;;;3.00;1.00;;;;;;5122020;28;20051;-78
2021/12/28 00:20:33;;;;;;;230.93;112.35;;;3.10;99.90;;;;;;5141202;27;20039;-80
2021/12/28 00:23:05;;;;;;;166.60;79.85;;;3.00;99.90;;;;;;5140872;27;20123;-80
2021/12/28 00:25:32;;;;;;;139.57;66.28;;;3.10;99.90;;;;;;5141333;27;20493;-80
2021/12/28 00:28:00;;;;;;;128.77;59.65;;;3.10;99.90;;;;;;5143357;27;20073;-80
2021/12/28 00:30:30;;;;;;;112.75;55.25;;;3.10;99.90;;;;;;5161401;27;20062;-80
2021/12/28 00:33:00;;;;;;;86.60;42.08;;;3.00;99.90;;;;;;5143225;27;20069;-80
2021/12/28 00:35:31;;;;;;;105.55;48.40;;;3.00;1.00;;;;;;5160656;27;20046;-80
2021/12/28 00:37:59;;;;;;;96.30;44.47;;;3.00;1.00;;;;;;5158512;27;20063;-80
2021/12/28 00:40:27;;;;;;;111.20;44.95;;;2.90;99.90;;;;;;5159517;27;20501;-82
2021/12/28 00:42:54;;;;;;;95.75;42.90;;;2.70;1.00;;;;;;5159771;27;20126;-81
2021/12/28 00:45:22;;;;;;;117.80;48.45;;;2.70;1.00;;;;;;5141026;27;20500;-82
2021/12/28 00:47:50;;;;;;;111.43;46.17;;;2.70;1.00;;;;;;5175126;27;20060;-80
2021/12/28 00:50:20;;;;;;;161.40;53.55;;;2.60;1.00;;;;;;5158095;27;20042;-81
2021/12/28 00:52:48;;;;;;;153.52;57.95;;;2.50;99.90;;;;;;5173654;27;20039;-80
2021/12/28 00:55:17;;;;;;;114.28;49.78;;;2.50;99.90;;;;;;5171568;27;20130;-81
2021/12/28 00:57:45;;;;;;;117.85;52.13;;;2.50;99.90;;;;;;5153874;27;20404;-81
2021/12/28 01:00:18;;;;;;;122.00;47.00;;;2.50;1.00;;;;;;5155033;27;20066;-82
2021/12/28 01:02:46;;;;;;;193.65;54.53;;;2.50;1.00;;;;;;5172331;27;20091;-79
2021/12/28 01:05:16;;;;;;;196.27;49.70;;;2.40;1.00;;;;;;5159761;27;20404;-80
2021/12/28 01:07:45;;;;;;;123.53;46.05;;;2.20;1.00;;;;;;5158473;27;20047;-80
2021/12/28 01:10:19;;;;;;;156.73;51.13;;;2.20;99.90;;;;;;5158807;27;20454;-81
2021/12/28 01:12:49;;;;;;;153.88;48.10;;;2.20;99.90;;;;;;5158313;27;20091;-79
2021/12/28 01:15:17;;;;;;;111.80;47.25;;;2.10;1.00;;;;;;5158178;27;20043;-80
2021/12/28 01:17:45;;;;;;;131.10;47.55;;;2.20;1.00;;;;;;5159215;27;20050;-80
2021/12/28 01:20:14;;;;;;;118.35;48.38;;;2.20;99.90;;;;;;5161152;27;20462;-80
2021/12/28 01:22:42;;;;;;;115.05;48.72;;;2.30;1.00;;;;;;5151668;27;20126;-80
2021/12/28 01:25:14;;;;;;;114.32;48.33;;;2.40;99.90;;;;;;5152477;27;20027;-78
2021/12/28 01:27:42;;;;;;;116.60;45.45;;;2.40;1.00;;;;;;5141816;27;20035;-79
2021/12/28 01:30:11;;;;;;;92.30;43.28;;;2.30;1.00;;;;;;5154489;27;20091;-80
2021/12/28 01:32:39;;;;;;;107.38;39.08;;;2.40;37.90;;;;;;5137293;28;20043;-78
2021/12/28 01:35:09;;;;;;;117.63;40.20;;;2.40;1.00;;;;;;5119530;28;20142;-80
2021/12/28 01:37:37;;;;;;;136.75;41.35;;;2.40;99.90;;;;;;5118943;28;20082;-78
2021/12/28 01:40:07;;;;;;;128.10;43.05;;;2.20;99.90;;;;;;5139096;27;20053;-79
2021/12/28 01:42:55;;;;;;;82.32;38.00;;;2.30;1.00;;;;;;5139891;27;20043;-80
2021/12/28 01:45:34;;;;;;;171.45;35.88;;;2.40;1.00;;;;;;5140663;27;20130;-80
2021/12/28 01:48:02;;;;;;;118.63;40.10;;;2.30;99.90;;;;;;5141486;27;20047;-79
2021/12/28 01:50:30;;;;;;;106.05;32.53;;;2.20;99.90;;;;;;5142521;22;20047;-82
2021/12/28 01:58:26;;;;;;;123.55;39.08;;;2.30;1.00;;;;;;5060173;28;20062;-80
2021/12/28 02:00:55;;;;;;;85.13;36.20;;;2.40;1.00;;;;;;5058896;28;20457;-81
2021/12/28 02:03:24;;;;;;;90.47;34.42;;;2.40;1.00;;;;;;5077384;28;20557;-80
2021/12/28 02:05:52;;;;;;;115.53;36.97;;;2.40;1.00;;;;;;5058960;28;20052;-81
2021/12/28 02:08:20;;;;;;;142.77;38.78;;;2.40;99.90;;;;;;5059270;28;20098;-81
2021/12/28 02:10:51;;;;;;;123.88;38.35;;;2.30;99.90;;;;;;5068757;28;20045;-81
2021/12/28 02:13:19;;;;;;;93.32;38.05;;;2.20;1.00;;;;;;5056655;28;20052;-80
2021/12/28 02:15:48;;;;;;;102.20;39.17;;;2.30;1.00;;;;;;5057124;28;20376;-81
2021/12/28 02:18:18;;;;;;;93.10;34.88;;;2.30;1.00;;;;;;5057291;28;20043;-81
2021/12/28 02:20:47;;;;;;;136.23;37.50;;;2.30;1.00;;;;;;5057383;28;20080;-81
2021/12/28 02:23:15;;;;;;;85.90;34.25;;;2.10;1.00;;;;;;5058232;28;20068;-78
2021/12/28 02:25:43;;;;;;;129.38;37.53;;;2.10;1.00;;;;;;5065450;28;20041;-80
2021/12/28 02:28:13;;;;;;;67.93;29.88;;;2.10;1.00;;;;;;5085801;28;20063;-80
2021/12/28 02:30:42;;;;;;;76.43;34.90;;;2.10;99.90;;;;;;5095059;28;20040;-80
2021/12/28 02:33:10;;;;;;;85.78;35.42;;;2.20;1.00;;;;;;5097241;28;20040;-79
2021/12/28 02:35:39;;;;;;;164.15;33.13;;;2.30;1.00;;;;;;5085249;28;20063;-80
2021/12/28 02:38:12;;;;;;;73.97;30.65;;;2.30;1.00;;;;;;5078665;28;20036;-80
2021/12/28 02:40:41;;;;;;;66.28;33.58;;;2.30;1.00;;;;;;5079794;28;20048;-81
2021/12/28 02:43:11;;;;;;;73.13;32.92;;;2.30;1.00;;;;;;5080576;28;20044;-79
2021/12/28 02:45:42;;;;;;;74.57;31.38;;;2.40;1.00;;;;;;5062933;28;20048;-80
2021/12/28 02:48:10;;;;;;;78.53;33.45;;;2.50;1.00;;;;;;5080359;28;20066;-79
2021/12/28 02:50:41;;;;;;;74.78;28.83;;;2.40;99.90;;;;;;5079238;28;20071;-79
2021/12/28 02:53:12;;;;;;;97.53;30.25;;;2.30;99.90;;;;;;5078333;28;20079;-79
2021/12/28 02:55:41;;;;;;;111.43;27.75;;;2.20;99.90;;;;;;5096839;28;20041;-81
2021/12/28 02:58:11;;;;;;;116.95;34.03;;;2.20;99.90;;;;;;5097103;28;20071;-81
2021/12/28 03:00:42;;;;;;;132.57;40.47;;;2.20;1.00;;;;;;5094250;28;20048;-80
2021/12/28 03:03:11;;;;;;;91.38;35.30;;;2.20;1.00;;;;;;5056738;28;20064;-81
2021/12/28 03:05:41;;;;;;;103.97;30.52;;;2.20;1.00;;;;;;5039377;28;20049;-80
2021/12/28 03:08:11;;;;;;;109.10;35.10;;;2.20;1.00;;;;;;5054490;28;20415;-81
2021/12/28 03:10:41;;;;;;;136.77;32.40;;;2.30;1.00;;;;;;5070119;28;20152;-81
2021/12/28 03:13:10;;;;;;;127.75;36.58;;;2.10;1.00;;;;;;5074293;28;20045;-80
2021/12/28 03:15:38;;;;;;;96.40;33.03;;;2.10;1.00;;;;;;5090698;28;20044;-81
2021/12/28 03:18:06;;;;;;;109.00;39.47;;;2.10;1.00;;;;;;5073688;28;20130;-81
2021/12/28 03:20:33;;;;;;;72.68;31.05;;;2.10;85.40;;;;;;5090332;28;20045;-80
2021/12/28 03:23:01;;;;;;;83.90;28.55;;;2.20;99.90;;;;;;5057989;28;20045;-82
2021/12/28 03:25:30;;;;;;;90.43;26.55;;;2.20;31.70;;;;;;5064438;28;20053;-81
2021/12/28 03:27:59;;;;;;;65.18;28.77;;;2.20;1.00;;;;;;5063197;28;20064;-81
2021/12/28 03:30:27;;;;;;;59.33;27.90;;;2.20;26.00;;;;;;5045226;28;20055;-81
2021/12/28 03:32:55;;;;;;;82.35;28.27;;;2.40;99.90;;;;;;5043349;28;20053;-81
2021/12/28 03:35:22;;;;;;;70.60;27.45;;;2.50;93.00;;;;;;5057799;28;20052;-80
2021/12/28 03:37:50;;;;;;;75.18;28.58;;;2.50;1.00;;;;;;5079572;28;20072;-81
2021/12/28 03:40:18;;;;;;;81.45;26.67;;;2.40;1.00;;;;;;5078186;28;20044;-81
2021/12/28 03:42:47;;;;;;;83.70;25.60;;;2.40;1.00;;;;;;5079529;28;20111;-81
2021/12/28 03:45:15;;;;;;;121.80;29.17;;;2.40;1.00;;;;;;5077830;28;20415;-81
2021/12/28 03:47:43;;;;;;;75.78;24.85;;;2.40;1.00;;;;;;5060998;28;20166;-82
2021/12/28 03:50:12;;;;;;;80.85;27.25;;;2.40;99.90;;;;;;5078495;28;20040;-82
2021/12/28 03:52:40;;;;;;;88.53;25.92;;;2.40;99.90;;;;;;5079780;28;20052;-81
2021/12/28 03:55:09;;;;;;;71.82;25.92;;;2.40;99.90;;;;;;5080091;28;20045;-81
2021/12/28 03:57:39;;;;;;;109.00;23.80;;;2.30;99.90;;;;;;5079943;28;20036;-80
2021/12/28 04:00:13;;;;;;;70.63;21.80;;;2.20;9.50;;;;;;5081352;28;20047;-80
2021/12/28 04:02:41;;;;;;;87.75;26.23;;;2.10;99.90;;;;;;5070729;28;20040;-80
2021/12/28 04:05:10;;;;;;;61.25;23.88;;;2.10;99.90;;;;;;5059556;28;20057;-80
2021/12/28 04:07:37;;;;;;;56.35;22.08;;;2.10;99.90;;;;;;5041834;28;20049;-82
2021/12/28 04:10:08;;;;;;;60.33;23.85;;;2.10;99.90;;;;;;5057687;28;20170;-81
2021/12/28 04:12:36;;;;;;;52.20;23.45;;;2.10;99.90;;;;;;5089650;28;20046;-81
2021/12/28 04:15:06;;;;;;;54.92;23.00;;;2.10;99.90;;;;;;5086507;28;20040;-81
2021/12/28 04:17:37;;;;;;;56.08;22.27;;;2.20;83.10;;;;;;5087382;28;20044;-78
2021/12/28 04:20:08;;;;;;;54.20;22.67;;;2.20;1.00;;;;;;5069289;28;20076;-81
2021/12/28 04:22:35;;;;;;;56.70;21.73;;;2.10;1.00;;;;;;5059108;28;20044;-81
2021/12/28 04:25:04;;;;;;;61.50;25.00;;;2.00;1.00;;;;;;5058405;28;20037;-81
2021/12/28 04:27:32;;;;;;;71.28;22.10;;;1.90;61.20;;;;;;5059392;28;20041;-82
2021/12/28 04:29:59;;;;;;;69.65;24.80;;;1.70;99.90;;;;;;5059870;28;20259;-81
2021/12/28 04:32:29;;;;;;;54.03;22.42;;;1.70;1.00;;;;;;5057531;28;20108;-80
2021/12/28 04:34:58;;;;;;;50.05;24.85;;;1.80;1.00;;;;;;5056894;28;20405;-81
2021/12/28 04:37:26;;;;;;;48.75;22.83;;;1.80;1.00;;;;;;5045556;28;20069;-81
2021/12/28 04:39:54;;;;;;;55.60;24.88;;;2.00;1.00;;;;;;5047886;28;20212;-81
2021/12/28 04:42:21;;;;;;;67.30;25.73;;;2.00;1.00;;;;;;5060920;28;20045;-80
2021/12/28 04:44:50;;;;;;;59.90;23.90;;;2.00;1.00;;;;;;5044238;28;20047;-80
2021/12/28 04:47:18;;;;;;;56.33;23.23;;;2.00;99.90;;;;;;5059937;28;20084;-79
2021/12/28 04:49:46;;;;;;;48.00;24.42;;;2.00;99.90;;;;;;5031636;28;20159;-80
2021/12/28 04:52:15;;;;;;;53.42;23.52;;;2.10;1.00;;;;;;5066435;28;20049;-81
2021/12/28 04:54:43;;;;;;;76.90;26.13;;;2.20;1.00;;;;;;5063442;28;20151;-82
2021/12/28 04:57:10;;;;;;;76.97;24.17;;;2.30;99.90;;;;;;5062882;28;20491;-80
2021/12/28 04:59:38;;;;;;;55.38;30.30;;;2.30;99.90;;;;;;5042777;28;20037;-82
2021/12/28 05:02:06;;;;;;;67.32;36.13;;;2.30;1.00;;;;;;5037379;28;20480;-81
2021/12/28 05:04:33;;;;;;;68.28;30.63;;;2.20;1.00;;;;;;5056073;28;20037;-81
2021/12/28 05:07:01;;;;;;;47.08;26.00;;;2.20;1.00;;;;;;5044468;28;20100;-80
2021/12/28 05:09:30;;;;;;;56.78;26.85;;;2.20;1.00;;;;;;5039806;28;20038;-80
2021/12/28 05:11:57;;;;;;;56.95;29.02;;;2.20;1.00;;;;;;5035133;28;20095;-80
2021/12/28 05:14:25;;;;;;;56.78;24.55;;;2.20;1.00;;;;;;5036394;28;20044;-81
2021/12/28 05:16:52;;;;;;;53.88;28.05;;;2.20;99.90;;;;;;5056908;28;20530;-81
2021/12/28 05:19:20;;;;;;;55.25;26.17;;;2.10;99.90;;;;;;5058831;28;20135;-81
2021/12/28 05:21:47;;;;;;;56.10;26.50;;;2.20;1.00;;;;;;5041932;28;20049;-81
2021/12/28 05:24:15;;;;;;;56.90;27.42;;;2.20;99.90;;;;;;5053489;28;20444;-81
2021/12/28 05:26:44;;;;;;;63.47;26.67;;;2.30;99.90;;;;;;5041304;28;20148;-82
2021/12/28 05:29:11;;;;;;;53.75;25.67;;;2.30;99.90;;;;;;5036850;28;20055;-81
2021/12/28 05:31:39;;;;;;;101.82;50.67;;;2.30;99.90;;;;;;5068475;28;20033;-79
2021/12/28 05:34:08;;;;;;;106.95;55.58;;;2.30;99.90;;;;;;5059444;28;20127;-81
2021/12/28 05:36:36;;;;;;;75.20;37.55;;;2.30;99.90;;;;;;5059022;28;20123;-81
2021/12/28 05:39:05;;;;;;;209.52;108.03;;;2.30;99.90;;;;;;5058793;28;20060;-81
2021/12/28 05:41:32;;;;;;;114.82;58.58;;;2.30;99.90;;;;;;5058704;28;20053;-80
2021/12/28 05:44:01;;;;;;;97.88;49.88;;;2.10;91.30;;;;;;5040855;28;20128;-81
2021/12/28 05:46:29;;;;;;;131.25;64.30;;;2.00;99.90;;;;;;5058614;28;20480;-81
2021/12/28 05:48:56;;;;;;;156.98;75.30;;;1.90;99.90;;;;;;5053022;28;20064;-81
2021/12/28 05:51:24;;;;;;;247.25;110.45;;;2.00;99.90;;;;;;5038591;28;20108;-82
2021/12/28 05:53:51;;;;;;;162.95;78.65;;;2.00;99.90;;;;;;5038303;28;20103;-81
2021/12/28 05:56:19;;;;;;;110.75;53.00;;;2.10;99.90;;;;;;5020357;28;20136;-81
2021/12/28 05:58:46;;;;;;;65.45;36.63;;;2.20;99.90;;;;;;5020611;28;20049;-81
2021/12/28 06:01:15;;;;;;;147.38;73.55;;;2.30;1.00;;;;;;5038106;28;20116;-81
2021/12/28 06:03:43;;;;;;;101.88;53.03;;;2.20;1.00;;;;;;5054943;28;20541;-80
2021/12/28 06:06:10;;;;;;;101.57;52.03;;;2.00;1.00;;;;;;5057591;28;20404;-82
2021/12/28 06:08:38;;;;;;;108.38;55.20;;;2.00;1.00;;;;;;5058179;28;20049;-81
2021/12/28 06:11:07;;;;;;;76.07;40.75;;;2.10;35.80;;;;;;5078690;28;20098;-80
2021/12/28 06:13:35;;;;;;;70.40;37.53;;;2.30;39.00;;;;;;5075702;28;20045;-82
2021/12/28 06:16:02;;;;;;;60.35;34.20;;;2.40;1.00;;;;;;5078639;28;20036;-82
2021/12/28 06:18:31;;;;;;;56.45;31.75;;;2.40;1.00;;;;;;5079470;28;20082;-81
2021/12/28 06:20:59;;;;;;;46.78;27.65;;;2.50;1.00;;;;;;5077782;28;20527;-80
2021/12/28 06:23:27;;;;;;;41.33;24.75;;;2.40;1.00;;;;;;5089416;28;20024;-79
2021/12/28 06:25:54;;;;;;;61.33;33.47;;;2.40;1.00;;;;;;5086569;28;20065;-82
2021/12/28 06:28:22;;;;;;;41.55;26.17;;;2.30;1.00;;;;;;5080960;28;20080;-80
2021/12/28 06:30:49;;;;;;;53.60;29.73;;;2.40;1.00;;;;;;5080680;28;20055;-81
2021/12/28 06:33:17;;;;;;;77.07;38.72;;;2.50;1.00;;;;;;5061272;28;20048;-83
2021/12/28 06:35:46;;;;;;;88.07;41.67;;;2.50;1.00;;;;;;5084551;28;20043;-81
2021/12/28 06:38:14;;;;;;;95.55;44.55;;;2.50;1.00;;;;;;5088876;28;20072;-81
2021/12/28 06:40:41;;;;;;;81.90;40.60;;;2.60;74.80;;;;;;5081192;28;20123;-82
2021/12/28 06:43:09;;;;;;;85.82;41.67;;;2.60;1.00;;;;;;5071311;28;20052;-82
2021/12/28 06:45:37;;;;;;;67.80;35.95;;;2.60;1.00;;;;;;5044927;28;20124;-80
2021/12/28 06:48:05;;;;;;;50.92;28.98;;;2.60;1.00;;;;;;5064736;28;20064;-79
2021/12/28 06:50:33;;;;;;;64.68;33.30;;;2.70;1.00;;;;;;5070198;28;20072;-79
2021/12/28 06:53:02;;;;;;;81.82;41.20;;;2.70;1.00;;;;;;5078934;28;20052;-80
2021/12/28 06:55:29;;;;;;;86.63;41.92;;;2.60;1.00;;;;;;5083445;28;20040;-79
2021/12/28 06:57:57;;;;;;;72.80;38.83;;;2.60;99.90;;;;;;5085293;28;20044;-80
2021/12/28 07:00:24;;;;;;;72.25;36.58;;;2.60;99.90;;;;;;5069249;28;20093;-81
2021/12/28 07:02:52;;;;;;;74.32;37.85;;;2.70;88.10;;;;;;5070475;28;20131;-81
2021/12/28 07:05:19;;;;;;;65.00;34.60;;;2.70;22.10;;;;;;5062247;28;20041;-81
2021/12/28 07:07:47;;;;;;;66.70;33.47;;;2.80;1.00;;;;;;5070129;28;20112;-81
2021/12/28 07:10:20;;;;;;;64.35;34.22;;;2.90;1.00;;;;;;5077098;28;20079;-81
2021/12/28 07:12:50;;;;;;;64.05;37.28;;;2.90;1.00;;;;;;5052204;28;20511;-81
2021/12/28 07:15:18;;;;;;;64.25;34.78;;;3.00;1.00;;;;;;5070931;28;20033;-81
2021/12/28 07:17:46;;;;;;;77.22;40.60;;;3.10;1.00;;;;;;5057825;28;20476;-79
2021/12/28 07:20:15;;;;;;;68.63;38.58;;;3.10;1.00;;;;;;5057037;28;20048;-81
2021/12/28 07:22:43;;;;;;;81.47;42.47;;;3.20;99.90;;;;;;5057411;28;20128;-82
2021/12/28 07:25:12;;;;;;;81.43;45.28;;;3.30;99.90;;;;;;5057017;28;20052;-81
2021/12/28 07:27:41;;;;;;;93.38;49.70;;;3.40;99.90;;;;;;5057889;28;20128;-82
2021/12/28 07:30:11;;;;;;;92.55;45.72;;;3.40;99.90;;;;;;5070656;28;20486;-82
2021/12/28 07:32:40;;;;;;;82.40;45.85;;;3.60;99.90;;;;;;5070362;28;20040;-82
2021/12/28 07:35:08;;;;;;;86.75;48.42;;;3.60;99.90;;;;;;5053520;28;20148;-82
2021/12/28 07:37:36;;;;;;;108.75;58.00;;;3.70;1.00;;;;;;5038635;28;20083;-82
2021/12/28 07:40:05;;;;;;;86.10;48.45;;;3.60;1.00;;;;;;5056617;28;20124;-78
2021/12/28 07:42:33;;;;;;;106.88;57.30;;;3.60;1.00;;;;;;5039773;28;20104;-79
2021/12/28 07:45:02;;;;;;;159.73;84.60;;;3.50;1.00;;;;;;5038489;28;20064;-79
2021/12/28 07:47:29;;;;;;;158.75;84.97;;;3.50;94.20;;;;;;5047074;28;20045;-80
2021/12/28 07:49:57;;;;;;;165.15;87.30;;;3.20;99.90;;;;;;5059311;28;20109;-82
2021/12/28 07:52:24;;;;;;;131.23;69.50;;;3.20;99.90;;;;;;5059684;28;20590;-80
2021/12/28 07:54:52;;;;;;;92.40;53.55;;;3.20;99.90;;;;;;5027517;28;20106;-79
2021/12/28 07:57:19;;;;;;;115.03;62.17;;;3.10;99.90;;;;;;5053429;28;20487;-80
2021/12/28 07:59:47;;;;;;;110.30;60.17;;;3.10;99.90;;;;;;5069067;28;20049;-81
2021/12/28 08:02:16;;;;;;;97.10;55.00;;;3.20;99.90;;;;;;5033198;28;20110;-81
2021/12/28 08:04:43;;;;;;;103.63;56.38;;;3.30;99.90;;;;;;5028873;28;20057;-80
2021/12/28 08:07:11;;;;;;;119.00;66.75;;;3.50;99.90;;;;;;5034438;28;20547;-81
2021/12/28 08:09:38;;;;;;;117.68;66.88;;;3.60;99.90;;;;;;5022956;28;20042;-81
2021/12/28 08:12:07;;;;;;;117.22;66.03;;;3.70;99.90;;;;;;5014442;28;20493;-82
2021/12/28 08:14:34;;;;;;;120.18;67.95;;;3.70;99.90;;;;;;5034623;28;20052;-81
2021/12/28 08:17:02;;;;;;;133.55;76.18;;;3.60;99.90;;;;;;5042222;28;20048;-80
2021/12/28 08:19:31;;;;;;;144.77;79.65;;;3.70;99.90;;;;;;5045589;28;20116;-81
2021/12/28 08:21:59;;;;;;;140.18;76.03;;;3.80;99.90;;;;;;5041256;28;20052;-80
2021/12/28 08:24:27;;;;;;;160.23;85.22;;;3.90;99.90;;;;;;5019291;28;20053;-81
2021/12/28 08:26:55;;;;;;;146.27;80.22;;;4.00;92.30;;;;;;5050888;28;20113;-80
2021/12/28 08:29:22;;;;;;;161.45;86.60;;;4.00;89.70;;;;;;5050148;28;20076;-81
2021/12/28 08:31:50;;;;;;;144.38;75.38;;;4.10;69.70;;;;;;5017315;28;20060;-79
2021/12/28 08:34:17;;;;;;;143.52;77.43;;;4.20;2.30;;;;;;5034645;28;20033;-79
2021/12/28 08:36:46;;;;;;;141.00;78.28;;;4.20;1.00;;;;;;5040533;28;20054;-81
2021/12/28 08:39:14;;;;;;;134.15;73.20;;;4.20;1.00;;;;;;5054137;28;20132;-80
2021/12/28 08:41:41;;;;;;;130.27;70.13;;;4.20;42.10;;;;;;5018511;28;20084;-81
2021/12/28 08:44:11;;;;;;;131.57;71.13;;;4.30;13.80;;;;;;5038053;28;20156;-80
2021/12/28 08:46:39;;;;;;;156.98;84.85;;;4.40;1.00;;;;;;5034656;28;20084;-80
2021/12/28 08:49:07;;;;;;;131.80;68.15;;;4.60;1.00;;;;;;5037957;28;20045;-81
2021/12/28 08:51:34;;;;;;;118.97;66.10;;;4.50;1.00;;;;;;5043506;28;20471;-78
2021/12/28 08:54:03;;;;;;;122.03;67.32;;;4.50;1.00;;;;;;5040056;28;20084;-80
2021/12/28 08:56:31;;;;;;;122.30;67.75;;;4.40;1.00;;;;;;5040705;28;20042;-80
2021/12/28 08:58:58;;;;;;;121.60;66.53;;;4.50;1.00;;;;;;5039943;28;20407;-79
2021/12/28 09:01:26;;;;;;;123.70;67.43;;;4.30;1.00;;;;;;5040671;28;20056;-78
2021/12/28 09:03:54;;;;;;;118.88;68.10;;;4.40;1.00;;;;;;5021017;28;20446;-80
2021/12/28 09:06:21;;;;;;;104.72;60.78;;;4.50;1.00;;;;;;5018385;28;20062;-79
2021/12/28 09:08:49;;;;;;;116.10;64.75;;;4.60;1.00;;;;;;5052341;28;20425;-78
2021/12/28 09:11:19;;;;;;;110.97;64.50;;;4.70;1.00;;;;;;5042039;28;20075;-80
2021/12/28 09:13:46;;;;;;;107.45;62.42;;;4.80;1.00;;;;;;5037759;28;20041;-79
2021/12/28 09:16:15;;;;;;;115.05;63.15;;;4.90;1.00;;;;;;5037234;28;20041;-81
2021/12/28 09:18:43;;;;;;;111.95;63.85;;;5.00;1.00;;;;;;5020251;28;20441;-79
2021/12/28 09:21:10;;;;;;;116.15;63.92;;;5.00;1.00;;;;;;5038042;28;20038;-78
2021/12/28 09:23:39;;;;;;;115.05;67.60;;;5.00;1.00;;;;;;5037746;28;20041;-80
2021/12/28 09:26:07;;;;;;;109.03;64.53;;;5.00;1.00;;;;;;5041955;28;20496;-78
2021/12/28 09:28:35;;;;;;;104.97;60.75;;;4.90;1.00;;;;;;5040186;28;20050;-80
2021/12/28 09:31:03;;;;;;;112.80;64.80;;;5.00;1.00;;;;;;5039235;28;20049;-80
2021/12/28 09:33:31;;;;;;;113.45;65.25;;;5.20;1.00;;;;;;5020759;28;20049;-80
2021/12/28 09:36:00;;;;;;;112.18;65.43;;;5.20;1.00;;;;;;5044574;28;20041;-78
2021/12/28 09:38:28;;;;;;;106.90;64.75;;;5.40;1.00;;;;;;5035912;28;20488;-80
2021/12/28 09:40:56;;;;;;;119.22;69.78;;;5.60;1.00;;;;;;5022601;28;20045;-80
2021/12/28 09:43:23;;;;;;;121.10;71.68;;;5.80;1.00;;;;;;5031265;28;20037;-79
2021/12/28 09:45:53;;;;;;;116.13;71.25;;;5.90;1.00;;;;;;5032150;28;20053;-81
2021/12/28 09:48:20;;;;;;;116.82;69.43;;;6.10;1.00;;;;;;5024633;28;20033;-78
2021/12/28 09:50:48;;;;;;;110.85;63.92;;;6.20;1.00;;;;;;5038990;28;20068;-81
2021/12/28 09:53:16;;;;;;;107.88;64.00;;;6.30;1.00;;;;;;5043287;28;20045;-81
2021/12/28 09:55:44;;;;;;;104.72;60.97;;;6.30;1.00;;;;;;5043926;28;20059;-80
2021/12/28 09:58:12;;;;;;;111.00;65.13;;;6.50;1.00;;;;;;5024851;28;20575;-81
2021/12/28 10:00:40;;;;;;;106.45;64.00;;;6.50;1.00;;;;;;5041842;28;20052;-80
2021/12/28 10:03:09;;;;;;;105.13;62.95;;;6.70;1.00;;;;;;5047055;28;20109;-82
2021/12/28 10:05:36;;;;;;;95.10;52.75;;;7.00;99.90;;;;;;5049297;28;20060;-80
2021/12/28 10:08:07;;;;;;;101.10;59.85;;;7.00;99.90;;;;;;5050013;28;20100;-80
2021/12/28 10:10:36;;;;;;;98.00;59.22;;;7.10;99.90;;;;;;5030764;28;20061;-82
2021/12/28 10:13:06;;;;;;;95.03;54.92;;;7.20;99.90;;;;;;5065828;28;20048;-82
2021/12/28 10:15:35;;;;;;;80.25;49.78;;;7.20;99.90;;;;;;5045183;28;20053;-82
2021/12/28 10:18:05;;;;;;;72.32;47.83;;;7.30;99.90;;;;;;5065906;28;20068;-80
2021/12/28 10:20:36;;;;;;;87.05;49.95;;;7.40;99.90;;;;;;5064795;28;20096;-81
2021/12/28 10:23:05;;;;;;;86.40;51.75;;;7.30;99.90;;;;;;5055028;28;20045;-81
2021/12/28 10:25:34;;;;;;;87.25;53.80;;;7.50;99.90;;;;;;5032532;28;20164;-82
2021/12/28 10:28:06;;;;;;;96.70;58.90;;;7.50;99.90;;;;;;5050922;28;20060;-79
2021/12/28 10:30:36;;;;;;;100.65;58.55;;;7.60;99.90;;;;;;5045610;28;20045;-80
2021/12/28 10:33:06;;;;;;;95.82;58.03;;;7.60;99.90;;;;;;5019229;28;20046;-81
2021/12/28 10:35:38;;;;;;;104.05;62.42;;;7.60;99.90;;;;;;5034732;28;20045;-80
2021/12/28 10:38:08;;;;;;;95.50;60.85;;;7.80;99.90;;;;;;5019717;28;20042;-81
2021/12/28 10:40:38;;;;;;;88.50;55.38;;;7.90;99.90;;;;;;5033448;28;20050;-80
2021/12/28 10:43:08;;;;;;;91.13;59.83;;;7.80;99.90;;;;;;5038056;28;20077;-82
2021/12/28 10:45:38;;;;;;;98.97;60.20;;;7.80;99.90;;;;;;5022886;28;20060;-81
2021/12/28 10:48:09;;;;;;;94.47;60.53;;;7.80;99.90;;;;;;5014248;28;20058;-80
2021/12/28 10:50:41;;;;;;;92.57;56.55;;;7.80;99.90;;;;;;5032253;28;20068;-80
2021/12/28 10:53:17;;;;;;;91.00;55.65;;;7.70;99.90;;;;;;5039584;28;20049;-82
2021/12/28 10:55:46;;;;;;;88.80;56.15;;;7.80;99.90;;;;;;5036993;28;20041;-80
2021/12/28 10:58:39;;;;;;;89.32;54.92;;;7.90;99.90;;;;;;5037090;28;20059;-82
2021/12/28 11:01:10;;;;;;;90.68;56.45;;;7.90;99.90;;;;;;5016645;28;20046;-80
2021/12/28 11:03:40;;;;;;;95.78;59.83;;;8.00;99.90;;;;;;5000703;28;20057;-79
2021/12/28 11:06:16;;;;;;;101.15;60.92;;;7.90;99.90;;;;;;5017190;28;20038;-80
2021/12/28 11:08:44;;;;;;;;;;;7.90;99.90;;;;;;5018063;28;20126;-81
2021/12/28 11:11:15;;;;;;;96.15;59.25;;;8.00;99.90;;;;;;5003724;28;19928;-80
2021/12/28 11:13:42;;;;;;;94.90;59.67;;;8.10;99.90;;;;;;4998060;28;20046;-82
2021/12/28 11:16:13;;;;;;;95.88;58.92;;;8.10;99.90;;;;;;5015084;28;20046;-80
2021/12/28 11:18:44;;;;;;;96.95;60.88;;;8.10;99.90;;;;;;4998814;28;20495;-82
2021/12/28 11:21:19;;;;;;;101.63;62.50;;;8.10;99.90;;;;;;5017505;28;20045;-82
2021/12/28 11:23:49;;;;;;;102.55;62.92;;;8.20;99.90;;;;;;5017667;28;20049;-81
2021/12/28 11:26:21;;;;;;;104.97;64.15;;;8.20;99.90;;;;;;5018130;28;20049;-82
2021/12/28 11:28:59;;;;;;;107.72;64.53;;;8.10;99.90;;;;;;5017549;28;20130;-82
2021/12/28 11:31:29;;;;;;;102.32;63.40;;;8.20;99.90;;;;;;5017509;28;20057;-82
2021/12/28 11:34:00;;;;;;;100.75;62.83;;;8.10;99.90;;;;;;5019636;28;20097;-80
2021/12/28 11:36:32;;;;;;;104.10;63.10;;;8.10;99.90;;;;;;5003328;28;20045;-81
2021/12/28 11:39:03;;;;;;;105.18;64.57;;;8.20;99.90;;;;;;5005318;28;20080;-82
2021/12/28 11:41:31;;;;;;;105.00;62.08;;;8.20;99.90;;;;;;5022352;28;20042;-83
2021/12/28 11:44:00;;;;;;;105.63;62.92;;;8.20;99.90;;;;;;5003732;28;20046;-82
2021/12/28 11:46:28;;;;;;;104.53;62.50;;;8.20;99.90;;;;;;5019222;28;20038;-82
2021/12/28 11:48:55;;;;;;;94.03;61.40;;;8.20;99.90;;;;;;5021752;28;20109;-81
2021/12/28 11:51:24;;;;;;;105.05;62.85;;;8.20;99.90;;;;;;5019958;28;20112;-83
2021/12/28 11:53:55;;;;;;;91.57;58.80;;;8.30;99.90;;;;;;5023950;28;20042;-83
2021/12/28 11:56:28;;;;;;;96.72;57.08;;;8.40;99.90;;;;;;5023481;28;20461;-82
2021/12/28 11:59:03;;;;;;;88.30;54.10;;;8.50;99.90;;;;;;5020268;28;20497;-83
2021/12/28 12:01:59;;;;;;;94.57;56.17;;;8.60;99.90;;;;;;5021549;28;20073;-82
2021/12/28 12:04:51;;;;;;;90.55;56.88;;;8.70;99.90;;;;;;5019358;28;20056;-83
2021/12/28 12:07:26;;;;;;;99.13;60.05;;;8.70;99.90;;;;;;5004385;28;20089;-84
2021/12/28 12:10:11;;;;;;;99.90;58.70;;;8.90;99.90;;;;;;5030557;28;20145;-83
2021/12/28 12:12:48;;;;;;;88.07;55.88;;;9.00;99.90;;;;;;5017688;28;20093;-84
2021/12/28 12:15:17;;;;;;;94.82;58.30;;;9.10;99.90;;;;;;5019656;28;20046;-83
2021/12/28 12:17:45;;;;;;;99.78;62.85;;;9.20;99.90;;;;;;5023133;28;20050;-84
2021/12/28 12:20:33;;;;;;;103.50;65.70;;;9.30;99.90;;;;;;5020534;28;20046;-85
2021/12/28 12:23:19;;;;;;;108.65;68.97;;;9.40;99.90;;;;;;5019261;28;20072;-83
2021/12/28 12:26:11;;;;;;;108.15;69.03;;;9.40;99.90;;;;;;5019053;28;20095;-84
2021/12/28 12:28:56;;;;;;;100.25;62.25;;;9.40;99.90;;;;;;5013825;28;20053;-83
2021/12/28 12:31:36;;;;;;;88.47;55.92;;;9.50;99.90;;;;;;5017888;28;20041;-84
2021/12/28 12:34:06;;;;;;;95.43;60.85;;;9.50;99.90;;;;;;5017782;28;20053;-85
2021/12/28 12:36:38;;;;;;;104.97;65.95;;;9.60;99.90;;;;;;5018989;28;20065;-84
2021/12/28 12:39:08;;;;;;;101.95;64.63;;;9.70;99.90;;;;;;5019773;28;20064;-84
2021/12/28 12:41:44;;;;;;;104.05;67.18;;;9.80;99.90;;;;;;5019211;28;20057;-85
2021/12/28 12:44:14;;;;;;;99.25;63.10;;;9.80;99.90;;;;;;5019622;28;20478;-83
2021/12/28 12:46:46;;;;;;;98.55;62.45;;;9.80;99.90;;;;;;5021048;28;20057;-83
2021/12/28 12:49:25;;;;;;;102.72;64.13;;;9.90;99.90;;;;;;5018329;28;20061;-82
2021/12/28 12:51:57;;;;;;;100.10;65.03;;;10.00;99.90;;;;;;5015774;28;20081;-82